Orion Highway — 3ESA4 — position and weather

sailwx.info

Track history (hours):
 
Tides and Currents Weather Stations Pressure Air Temp Water Temp Dewpoint Dewpoint Depression Visibility Wind Speed Wind Dir Waves Ship Positions

Orion Highway

Last reported at 2017-Oct-15 08:41 UTC. Time now 2017-Oct-18 15:17 UTC.
Position N 39°59' W 032°07'.

Length 199 m; draft 9.4 m.

Type: Cargo ship. MMSI: 374678000.

Date/timePositionNaut miles runAvg speedWind from/ knotsBaromVisibWave heightAir tempDewpointWater temp
2017-Oct-15 08:41N 39°59' W 032°07'317.5
2017-Oct-15 08:30N 40°00' W 032°04'917.8
2017-Oct-15 08:00N 40°04' W 031°52'  
2017-Oct-12 11:53N 48°45' W 007°14'3817.1
2017-Oct-12 09:38N 49°02' W 006°22'316.3
2017-Oct-12 09:29N 49°04' W 006°18'816.7
2017-Oct-12 09:00N 49°07' W 006°08'916.6
2017-Oct-12 08:27N 49°11' W 005°55'716.3
2017-Oct-12 08:00N 49°15' W 005°45'1016.3
2017-Oct-12 07:23N 49°19' W 005°32'716.3
2017-Oct-12 06:59N 49°23' W 005°22'715.0
2017-Oct-12 06:29N 49°26' W 005°13'815.6
2017-Oct-12 05:57N 49°30' W 005°01'817.5
2017-Oct-12 05:30N 49°32' W 004°50'4018.7
2017-Oct-12 03:24N 49°46' W 003°53'719.0
2017-Oct-12 03:00N 49°49' W 003°42'1018.7
2017-Oct-12 02:30N 49°52' W 003°28'918.3
2017-Oct-12 02:00N 49°56' W 003°15'917.9
2017-Oct-12 01:30N 49°59' W 003°02'917.1
2017-Oct-12 01:00N 50°01' W 002°49'816.6
2017-Oct-12 00:30N 50°04' W 002°37'1215.9
2017-Oct-11 23:46N 50°08' W 002°20'3915.9
2017-Oct-11 21:19N 50°25' W 001°25'617.2
2017-Oct-11 20:58N 50°28' W 001°17'817.6
2017-Oct-11 20:31N 50°32' W 001°06'714.5
2017-Oct-11 20:00N 50°38' W 000°59'4 8.7
2017-Oct-11 19:30N 50°42' W 000°59'815.1
2017-Oct-11 19:01N 50°46' W 001°09'612.5
2017-Oct-11 18:30N 50°48' W 001°18'510.0
2017-Oct-11 18:00N 50°52' W 001°22'2 3.6
2017-Oct-11 17:31N 50°54' W 001°24'0 0.0
2017-Oct-11 16:55N 50°54' W 001°24'51 3.0
2017-Oct-11 00:00N 50°33' W 000°11'815.5
2017-Oct-10 23:30N 50°33' E 000°02'815.9
2017-Oct-10 23:00N 50°35' E 000°14'816.3
2017-Oct-10 22:30N 50°37' E 000°26'917.2
2017-Oct-10 22:00N 50°41' E 000°39'918.1
2017-Oct-10 21:30N 50°46' E 000°51'918.1
2017-Oct-10 21:00N 50°51' E 001°03'917.7
2017-Oct-10 20:30N 50°56' E 001°14'918.0
2017-Oct-10 20:01N 51°02' E 001°24'917.7
2017-Oct-10 19:30N 51°08' E 001°35'917.3
2017-Oct-10 19:00N 51°14' E 001°45'917.0
2017-Oct-10 18:30N 51°21' E 001°51'816.0
2017-Oct-10 18:01N 51°28' E 001°57'816.5
2017-Oct-10 17:30N 51°34' E 002°07'816.4
2017-Oct-10 17:01N 51°40' E 002°15'1916.3
2017-Oct-10 15:49N 51°54' E 002°37'616.8
2017-Oct-10 15:29N 51°58' E 002°43'817.1
2017-Oct-10 15:00N 52°05' E 002°51'4117.4
2017-Oct-10 12:38N 52°38' E 003°30'517.6
2017-Oct-10 12:20N 52°42' E 003°35'617.7
2017-Oct-10 12:00N 52°47' E 003°42'917.9
2017-Oct-10 11:30N 52°53' E 003°53'917.7
2017-Oct-10 11:00N 52°59' E 004°04'917.5
2017-Oct-10 10:30N 53°04' E 004°15'917.3
2017-Oct-10 10:00N 53°11' E 004°24'1417.5
2017-Oct-10 09:11N 53°24' E 004°33'815.7
2017-Oct-10 08:40N 53°30' E 004°44'316.8
2017-Oct-10 08:30N 53°30' E 004°48'816.6
2017-Oct-10 08:00N 53°33' E 005°01'816.6
2017-Oct-10 07:30N 53°36' E 005°14'917.1
2017-Oct-10 07:00N 53°39' E 005°28'7017.4
2017-Oct-10 03:00N 53°59' E 007°21'1016.9
2017-Oct-10 02:25N 53°60' E 007°38'716.3
2017-Oct-10 02:00N 53°54' E 007°45'611.3
2017-Oct-10 01:31N 53°52' E 007°53'611.0
2017-Oct-10 01:00N 53°51' E 008°02'713.6
2017-Oct-10 00:30N 53°46' E 008°11'713.1
2017-Oct-10 00:00N 53°42' E 008°20'611.7
2017-Oct-09 23:30N 53°38' E 008°27'4 8.1
2017-Oct-09 23:00N 53°35' E 008°31'1 2.9
2017-Oct-09 22:30N 53°34' E 008°33'0 0.3
2017-Oct-09 22:01N 53°34' E 008°33'0 0.9
2017-Oct-09 21:30N 53°35' E 008°33'0 0.0
2017-Oct-09 20:58N 53°35' E 008°33'0 0.0
2017-Oct-09 20:25N 53°35' E 008°33'0 0.0
2017-Oct-09 19:58N 53°35' E 008°33'0 0.0
2017-Oct-09 19:28N 53°35' E 008°33'0 0.0
2017-Oct-09 18:58N 53°35' E 008°33'0 0.0
2017-Oct-09 18:28N 53°35' E 008°33'0 0.0
2017-Oct-09 17:58N 53°35' E 008°33'0 0.0
2017-Oct-09 17:28N 53°35' E 008°33'0 0.0
2017-Oct-09 16:58N 53°35' E 008°33'0 0.0
2017-Oct-09 16:28N 53°35' E 008°33'0 0.0
2017-Oct-09 15:58N 53°35' E 008°33'0 0.0
2017-Oct-09 15:28N 53°35' E 008°33'0 0.0
2017-Oct-09 14:58N 53°35' E 008°33'0 0.0
2017-Oct-09 14:28N 53°35' E 008°33'0 0.0
2017-Oct-09 13:58N 53°35' E 008°33'0 0.0
2017-Oct-09 13:28N 53°35' E 008°33'0 0.0
2017-Oct-09 12:58N 53°35' E 008°33'0 0.0
2017-Oct-09 12:28N 53°35' E 008°33'0 0.0
2017-Oct-09 11:58N 53°35' E 008°33'0 0.0
2017-Oct-09 11:28N 53°35' E 008°33'0 0.0
2017-Oct-09 10:58N 53°35' E 008°33'0 0.0
2017-Oct-09 10:28N 53°35' E 008°33'0 0.0
2017-Oct-09 09:58N 53°35' E 008°33'0 0.0
2017-Oct-09 09:28N 53°35' E 008°33'0 0.0
2017-Oct-09 08:58N 53°35' E 008°33'0 0.0
2017-Oct-09 08:28N 53°35' E 008°33'0 0.0
2017-Oct-09 07:58N 53°35' E 008°33'0 0.0
2017-Oct-09 07:28N 53°35' E 008°33'0 0.0
2017-Oct-09 06:58N 53°35' E 008°33'0 0.0
2017-Oct-09 06:28N 53°35' E 008°33'0 0.0
2017-Oct-09 05:58N 53°35' E 008°33'0 0.0
2017-Oct-09 05:28N 53°35' E 008°33'0 0.0
2017-Oct-09 04:58N 53°35' E 008°33'0 0.0
2017-Oct-09 04:28N 53°35' E 008°33'0 0.0
2017-Oct-09 03:58N 53°35' E 008°33'0 0.0
2017-Oct-09 03:28N 53°35' E 008°33'0 0.0
2017-Oct-09 02:58N 53°35' E 008°33'0 0.0
2017-Oct-09 02:28N 53°35' E 008°33'0 0.0
2017-Oct-09 01:58N 53°35' E 008°33'0 0.0
2017-Oct-09 01:28N 53°35' E 008°33'0 0.0
2017-Oct-09 00:58N 53°35' E 008°33'0 0.0
2017-Oct-09 00:28N 53°35' E 008°33'0 0.0
2017-Oct-08 23:58N 53°35' E 008°33'0 0.0
2017-Oct-08 23:28N 53°35' E 008°33'0 0.1
2017-Oct-08 23:01N 53°35' E 008°33'0 0.8
2017-Oct-08 22:30N 53°34' E 008°33'0 0.6
2017-Oct-08 22:00N 53°34' E 008°32'3 6.8
2017-Oct-08 21:30N 53°37' E 008°29'4 7.7
2017-Oct-08 21:00N 53°39' E 008°24'816.0
2017-Oct-08 20:30N 53°44' E 008°14'816.0
2017-Oct-08 20:00N 53°50' E 008°04'814.9
2017-Oct-08 19:30N 53°52' E 007°52'5 9.3
2017-Oct-08 19:00N 53°54' E 007°45'1 0.5
2017-Oct-08 17:15N 53°55' E 007°46'0 0.0
2017-Oct-08 14:48N 53°55' E 007°46'0 0.0
2017-Oct-08 14:30N 53°55' E 007°46'0 0.1
2017-Oct-08 14:00N 53°55' E 007°46'0 0.0
2017-Oct-08 12:42N 53°55' E 007°46'0 0.0
2017-Oct-08 11:24N 53°55' E 007°46'0 0.0
2017-Oct-08 10:48N 53°55' E 007°46'0 0.0
2017-Oct-08 08:06N 53°55' E 007°46'0 0.2
2017-Oct-08 08:00N 53°55' E 007°46'0 0.1
2017-Oct-08 07:30N 53°55' E 007°46'0 0.0
2017-Oct-08 07:00N 53°55' E 007°46'0 0.0
2017-Oct-08 06:18N 53°55' E 007°46'0 0.1
2017-Oct-08 05:57N 53°55' E 007°46'0 0.0
2017-Oct-08 05:27N 53°55' E 007°46'0 0.0
2017-Oct-08 04:57N 53°55' E 007°46'0 0.0
2017-Oct-08 04:27N 53°55' E 007°46'0 0.0
2017-Oct-08 04:00N 53°55' E 007°46'0 0.0
2017-Oct-08 03:18N 53°55' E 007°47'0 0.1
2017-Oct-08 02:54N 53°55' E 007°46'0 0.2
2017-Oct-08 02:27N 53°55' E 007°46'0 0.2
2017-Oct-08 01:57N 53°55' E 007°46'0 0.1
2017-Oct-08 01:30N 53°55' E 007°46'0 0.0
2017-Oct-08 00:27N 53°55' E 007°46'0 0.1
2017-Oct-08 00:00N 53°55' E 007°47'0 0.0
2017-Oct-07 23:30N 53°55' E 007°47'0 0.0
2017-Oct-07 23:00N 53°55' E 007°47'0 0.0
2017-Oct-07 22:27N 53°55' E 007°47'0 0.0
2017-Oct-07 21:57N 53°55' E 007°47'0 0.0
2017-Oct-07 21:30N 53°55' E 007°47'0 0.0
2017-Oct-07 21:00N 53°55' E 007°47'0 0.0
2017-Oct-07 20:30N 53°55' E 007°47'0 0.0
2017-Oct-07 20:00N 53°55' E 007°47'0 0.1
2017-Oct-07 19:27N 53°55' E 007°47'0 0.1
2017-Oct-07 19:00N 53°55' E 007°46'0 0.1
2017-Oct-07 18:30N 53°55' E 007°47'0 0.1
2017-Oct-07 17:57N 53°55' E 007°47'0 0.0
2017-Oct-07 17:24N 53°55' E 007°47'0 0.0
2017-Oct-07 16:58N 53°55' E 007°47'0 0.1
2017-Oct-07 16:28N 53°55' E 007°47'0 0.3
2017-Oct-07 15:58N 53°55' E 007°47'0 0.2
2017-Oct-07 15:25N 53°55' E 007°47'0 0.1
2017-Oct-07 14:52N 53°55' E 007°47'0 0.0
2017-Oct-07 14:25N 53°55' E 007°47'0 0.0
2017-Oct-07 13:58N 53°55' E 007°47'0 0.2
2017-Oct-07 13:28N 53°55' E 007°47'0 0.0
2017-Oct-07 12:58N 53°55' E 007°47'0 0.1
2017-Oct-07 12:04N 53°55' E 007°46'0 0.5
2017-Oct-07 11:55N 53°55' E 007°47'0 0.0
2017-Oct-07 11:28N 53°55' E 007°47'0 0.2
2017-Oct-07 10:58N 53°55' E 007°46'0 0.0
2017-Oct-07 10:22N 53°55' E 007°46'0 0.0
2017-Oct-07 09:58N 53°55' E 007°46'0 0.1
2017-Oct-07 09:30N 53°55' E 007°46'5 9.6
2017-Oct-07 09:00N 53°55' E 007°38'7817.3
2017-Oct-07 04:29N 53°35' E 005°31'816.3
2017-Oct-07 04:00N 53°32' E 005°18'815.9
2017-Oct-07 03:30N 53°30' E 005°06'815.6
2017-Oct-07 03:00N 53°27' E 004°54'815.1
2017-Oct-07 02:30N 53°23' E 004°42'815.1
2017-Oct-07 02:00N 53°16' E 004°38'715.0
2017-Oct-07 01:31N 53°10' E 004°33'815.2
2017-Oct-07 01:00N 53°03' E 004°26'815.0
2017-Oct-07 00:30N 52°57' E 004°19'714.9
2017-Oct-07 00:00N 52°50' E 004°15'814.8
2017-Oct-06 23:27N 52°44' E 004°06'714.9
2017-Oct-06 22:59N 52°39' E 003°57'714.5
2017-Oct-06 22:29N 52°34' E 003°49'814.4
2017-Oct-06 21:55N 52°28' E 003°40'613.9
2017-Oct-06 21:30N 52°24' E 003°33'5414.1
2017-Oct-06 17:41N 51°40' E 002°42'315.4
2017-Oct-06 17:30N 51°37' E 002°44'1116.1
2017-Oct-06 16:50N 51°27' E 002°41'411.8
2017-Oct-06 16:30N 51°23' E 002°44'511.0
2017-Oct-06 16:00N 51°25' E 002°52'713.7
2017-Oct-06 15:30N 51°24' E 003°03'612.3
2017-Oct-06 15:00N 51°22' E 003°12'2 3.4
2017-Oct-06 14:30N 51°20' E 003°13'0 0.0
2017-Oct-06 14:00N 51°20' E 003°13'0 0.0
2017-Oct-06 13:30N 51°20' E 003°13'2 3.1
2017-Oct-06 13:00N 51°19' E 003°14'1 1.3
2017-Oct-06 12:28N 51°18' E 003°14'0 0.0
2017-Oct-06 11:58N 51°18' E 003°14'0 0.0
2017-Oct-06 11:28N 51°18' E 003°14'0 0.0
2017-Oct-06 10:58N 51°18' E 003°14'0 0.0
2017-Oct-06 10:28N 51°18' E 003°14'0 0.0
2017-Oct-06 09:58N 51°18' E 003°14'0 0.0
2017-Oct-06 09:28N 51°18' E 003°14'0 0.0
2017-Oct-06 08:58N 51°18' E 003°14'0 0.0
2017-Oct-06 08:28N 51°18' E 003°14'0 0.0
2017-Oct-06 07:58N 51°18' E 003°14'0 0.0
2017-Oct-06 07:28N 51°18' E 003°14'0 0.0
2017-Oct-06 06:58N 51°18' E 003°14'0 0.0
2017-Oct-06 06:28N 51°18' E 003°14'0 0.0
2017-Oct-06 05:58N 51°18' E 003°14'0 0.0
2017-Oct-06 05:28N 51°18' E 003°14'0 0.0
2017-Oct-06 04:58N 51°18' E 003°14'0 0.0
2017-Oct-06 04:25N 51°18' E 003°14'0 0.0
2017-Oct-06 03:58N 51°18' E 003°14'0 0.0
2017-Oct-06 03:28N 51°18' E 003°14'0 0.0
2017-Oct-06 02:58N 51°18' E 003°14'0 0.0
2017-Oct-06 02:28N 51°18' E 003°14'0 0.0
2017-Oct-06 01:58N 51°18' E 003°14'0 0.0
2017-Oct-06 01:28N 51°18' E 003°14'0 0.0
2017-Oct-06 00:58N 51°18' E 003°14'0 0.0
2017-Oct-06 00:28N 51°18' E 003°14'0 0.0
2017-Oct-05 23:58N 51°18' E 003°14'0 0.0
2017-Oct-05 23:28N 51°18' E 003°14'0 0.0
2017-Oct-05 22:58N 51°18' E 003°14'0 0.0
2017-Oct-05 22:28N 51°18' E 003°14'0 0.0
2017-Oct-05 21:58N 51°18' E 003°14'0 0.0
2017-Oct-05 21:28N 51°18' E 003°14'0 0.0
2017-Oct-05 20:58N 51°18' E 003°14'0 0.0
2017-Oct-05 20:28N 51°18' E 003°14'0 0.0
2017-Oct-05 19:58N 51°18' E 003°14'0 0.0
2017-Oct-05 19:28N 51°18' E 003°14'0 0.0
2017-Oct-05 18:58N 51°18' E 003°14'0 0.0
2017-Oct-05 18:28N 51°18' E 003°14'0 0.0
2017-Oct-05 17:58N 51°18' E 003°14'0 0.0
2017-Oct-05 17:28N 51°18' E 003°14'0 0.0
2017-Oct-05 16:58N 51°18' E 003°14'0 0.0
2017-Oct-05 15:28N 51°18' E 003°14'0 0.0
2017-Oct-05 14:58N 51°18' E 003°14'0 0.0
2017-Oct-05 14:28N 51°18' E 003°14'0 0.0
2017-Oct-05 13:58N 51°18' E 003°14'0 0.0
2017-Oct-05 13:28N 51°18' E 003°14'0 0.0
2017-Oct-05 12:58N 51°18' E 003°14'0 0.0
2017-Oct-05 12:28N 51°18' E 003°14'0 0.0
2017-Oct-05 11:58N 51°18' E 003°14'0 0.0
2017-Oct-05 11:28N 51°18' E 003°14'0 0.0
2017-Oct-05 10:58N 51°18' E 003°14'0 0.0
2017-Oct-05 10:28N 51°18' E 003°14'0 0.0
2017-Oct-05 09:58N 51°18' E 003°14'0 0.0
2017-Oct-05 09:28N 51°18' E 003°14'0 0.0
2017-Oct-05 08:58N 51°18' E 003°14'  
Track history (hours):
 
Tides and Currents Weather Stations Pressure Air Temp Water Temp Dewpoint Dewpoint Depression Visibility Wind Speed Wind Dir Waves Ship Positions

Orion Highway

Last reported at 2017-Oct-15 08:41 UTC. Time now 2017-Oct-18 15:17 UTC.
Position N 39°59' W 032°07'.

Length 199 m; draft 9.4 m.

Type: Cargo ship. MMSI: 374678000.

Date/timePositionNaut miles runAvg speedWind from/ knotsBaromVisibWave heightAir tempDewpointWater temp
2017-Oct-15 08:41N 39°59' W 032°07'317.5
2017-Oct-15 08:30N 40°00' W 032°04'917.8
2017-Oct-15 08:00N 40°04' W 031°52'  
2017-Oct-12 11:53N 48°45' W 007°14'3817.1
2017-Oct-12 09:38N 49°02' W 006°22'316.3
2017-Oct-12 09:29N 49°04' W 006°18'816.7
2017-Oct-12 09:00N 49°07' W 006°08'916.6
2017-Oct-12 08:27N 49°11' W 005°55'716.3
2017-Oct-12 08:00N 49°15' W 005°45'1016.3
2017-Oct-12 07:23N 49°19' W 005°32'716.3
2017-Oct-12 06:59N 49°23' W 005°22'715.0
2017-Oct-12 06:29N 49°26' W 005°13'815.6
2017-Oct-12 05:57N 49°30' W 005°01'817.5
2017-Oct-12 05:30N 49°32' W 004°50'4018.7
2017-Oct-12 03:24N 49°46' W 003°53'719.0
2017-Oct-12 03:00N 49°49' W 003°42'1018.7
2017-Oct-12 02:30N 49°52' W 003°28'918.3
2017-Oct-12 02:00N 49°56' W 003°15'917.9
2017-Oct-12 01:30N 49°59' W 003°02'917.1
2017-Oct-12 01:00N 50°01' W 002°49'816.6
2017-Oct-12 00:30N 50°04' W 002°37'1215.9
2017-Oct-11 23:46N 50°08' W 002°20'3915.9
2017-Oct-11 21:19N 50°25' W 001°25'617.2
2017-Oct-11 20:58N 50°28' W 001°17'817.6
2017-Oct-11 20:31N 50°32' W 001°06'714.5
2017-Oct-11 20:00N 50°38' W 000°59'4 8.7
2017-Oct-11 19:30N 50°42' W 000°59'815.1
2017-Oct-11 19:01N 50°46' W 001°09'612.5
2017-Oct-11 18:30N 50°48' W 001°18'510.0
2017-Oct-11 18:00N 50°52' W 001°22'2 3.6
2017-Oct-11 17:31N 50°54' W 001°24'0 0.0
2017-Oct-11 16:55N 50°54' W 001°24'51 3.0
2017-Oct-11 00:00N 50°33' W 000°11'815.5
2017-Oct-10 23:30N 50°33' E 000°02'815.9
2017-Oct-10 23:00N 50°35' E 000°14'816.3
2017-Oct-10 22:30N 50°37' E 000°26'917.2
2017-Oct-10 22:00N 50°41' E 000°39'918.1
2017-Oct-10 21:30N 50°46' E 000°51'918.1
2017-Oct-10 21:00N 50°51' E 001°03'917.7
2017-Oct-10 20:30N 50°56' E 001°14'918.0
2017-Oct-10 20:01N 51°02' E 001°24'917.7
2017-Oct-10 19:30N 51°08' E 001°35'917.3
2017-Oct-10 19:00N 51°14' E 001°45'917.0
2017-Oct-10 18:30N 51°21' E 001°51'816.0
2017-Oct-10 18:01N 51°28' E 001°57'816.5
2017-Oct-10 17:30N 51°34' E 002°07'816.4
2017-Oct-10 17:01N 51°40' E 002°15'1916.3
2017-Oct-10 15:49N 51°54' E 002°37'616.8
2017-Oct-10 15:29N 51°58' E 002°43'817.1
2017-Oct-10 15:00N 52°05' E 002°51'4117.4
2017-Oct-10 12:38N 52°38' E 003°30'517.6
2017-Oct-10 12:20N 52°42' E 003°35'617.7
2017-Oct-10 12:00N 52°47' E 003°42'917.9
2017-Oct-10 11:30N 52°53' E 003°53'917.7
2017-Oct-10 11:00N 52°59' E 004°04'917.5
2017-Oct-10 10:30N 53°04' E 004°15'917.3
2017-Oct-10 10:00N 53°11' E 004°24'1417.5
2017-Oct-10 09:11N 53°24' E 004°33'815.7
2017-Oct-10 08:40N 53°30' E 004°44'316.8
2017-Oct-10 08:30N 53°30' E 004°48'816.6
2017-Oct-10 08:00N 53°33' E 005°01'816.6
2017-Oct-10 07:30N 53°36' E 005°14'917.1
2017-Oct-10 07:00N 53°39' E 005°28'7017.4
2017-Oct-10 03:00N 53°59' E 007°21'1016.9
2017-Oct-10 02:25N 53°60' E 007°38'716.3
2017-Oct-10 02:00N 53°54' E 007°45'611.3
2017-Oct-10 01:31N 53°52' E 007°53'611.0
2017-Oct-10 01:00N 53°51' E 008°02'713.6
2017-Oct-10 00:30N 53°46' E 008°11'713.1
2017-Oct-10 00:00N 53°42' E 008°20'611.7
2017-Oct-09 23:30N 53°38' E 008°27'4 8.1
2017-Oct-09 23:00N 53°35' E 008°31'1 2.9
2017-Oct-09 22:30N 53°34' E 008°33'0 0.3
2017-Oct-09 22:01N 53°34' E 008°33'0 0.9
2017-Oct-09 21:30N 53°35' E 008°33'0 0.0
2017-Oct-09 20:58N 53°35' E 008°33'0 0.0
2017-Oct-09 20:25N 53°35' E 008°33'0 0.0
2017-Oct-09 19:58N 53°35' E 008°33'0 0.0
2017-Oct-09 19:28N 53°35' E 008°33'0 0.0
2017-Oct-09 18:58N 53°35' E 008°33'0 0.0
2017-Oct-09 18:28N 53°35' E 008°33'0 0.0
2017-Oct-09 17:58N 53°35' E 008°33'0 0.0
2017-Oct-09 17:28N 53°35' E 008°33'0 0.0
2017-Oct-09 16:58N 53°35' E 008°33'0 0.0
2017-Oct-09 16:28N 53°35' E 008°33'0 0.0
2017-Oct-09 15:58N 53°35' E 008°33'0 0.0
2017-Oct-09 15:28N 53°35' E 008°33'0 0.0
2017-Oct-09 14:58N 53°35' E 008°33'0 0.0
2017-Oct-09 14:28N 53°35' E 008°33'0 0.0
2017-Oct-09 13:58N 53°35' E 008°33'0 0.0
2017-Oct-09 13:28N 53°35' E 008°33'0 0.0
2017-Oct-09 12:58N 53°35' E 008°33'0 0.0
2017-Oct-09 12:28N 53°35' E 008°33'0 0.0
2017-Oct-09 11:58N 53°35' E 008°33'0 0.0
2017-Oct-09 11:28N 53°35' E 008°33'0 0.0
2017-Oct-09 10:58N 53°35' E 008°33'0 0.0
2017-Oct-09 10:28N 53°35' E 008°33'0 0.0
2017-Oct-09 09:58N 53°35' E 008°33'0 0.0
2017-Oct-09 09:28N 53°35' E 008°33'0 0.0
2017-Oct-09 08:58N 53°35' E 008°33'0 0.0
2017-Oct-09 08:28N 53°35' E 008°33'0 0.0
2017-Oct-09 07:58N 53°35' E 008°33'0 0.0
2017-Oct-09 07:28N 53°35' E 008°33'0 0.0
2017-Oct-09 06:58N 53°35' E 008°33'0 0.0
2017-Oct-09 06:28N 53°35' E 008°33'0 0.0
2017-Oct-09 05:58N 53°35' E 008°33'0 0.0
2017-Oct-09 05:28N 53°35' E 008°33'0 0.0
2017-Oct-09 04:58N 53°35' E 008°33'0 0.0
2017-Oct-09 04:28N 53°35' E 008°33'0 0.0
2017-Oct-09 03:58N 53°35' E 008°33'0 0.0
2017-Oct-09 03:28N 53°35' E 008°33'0 0.0
2017-Oct-09 02:58N 53°35' E 008°33'0 0.0
2017-Oct-09 02:28N 53°35' E 008°33'0 0.0
2017-Oct-09 01:58N 53°35' E 008°33'0 0.0
2017-Oct-09 01:28N 53°35' E 008°33'0 0.0
2017-Oct-09 00:58N 53°35' E 008°33'0 0.0
2017-Oct-09 00:28N 53°35' E 008°33'0 0.0
2017-Oct-08 23:58N 53°35' E 008°33'0 0.0
2017-Oct-08 23:28N 53°35' E 008°33'0 0.1
2017-Oct-08 23:01N 53°35' E 008°33'0 0.8
2017-Oct-08 22:30N 53°34' E 008°33'0 0.6
2017-Oct-08 22:00N 53°34' E 008°32'3 6.8
2017-Oct-08 21:30N 53°37' E 008°29'4 7.7
2017-Oct-08 21:00N 53°39' E 008°24'816.0
2017-Oct-08 20:30N 53°44' E 008°14'816.0
2017-Oct-08 20:00N 53°50' E 008°04'814.9
2017-Oct-08 19:30N 53°52' E 007°52'5 9.3
2017-Oct-08 19:00N 53°54' E 007°45'1 0.5
2017-Oct-08 17:15N 53°55' E 007°46'0 0.0
2017-Oct-08 14:48N 53°55' E 007°46'0 0.0
2017-Oct-08 14:30N 53°55' E 007°46'0 0.1
2017-Oct-08 14:00N 53°55' E 007°46'0 0.0
2017-Oct-08 12:42N 53°55' E 007°46'0 0.0
2017-Oct-08 11:24N 53°55' E 007°46'0 0.0
2017-Oct-08 10:48N 53°55' E 007°46'0 0.0
2017-Oct-08 08:06N 53°55' E 007°46'0 0.2
2017-Oct-08 08:00N 53°55' E 007°46'0 0.1
2017-Oct-08 07:30N 53°55' E 007°46'0 0.0
2017-Oct-08 07:00N 53°55' E 007°46'0 0.0
2017-Oct-08 06:18N 53°55' E 007°46'0 0.1
2017-Oct-08 05:57N 53°55' E 007°46'0 0.0
2017-Oct-08 05:27N 53°55' E 007°46'0 0.0
2017-Oct-08 04:57N 53°55' E 007°46'0 0.0
2017-Oct-08 04:27N 53°55' E 007°46'0 0.0
2017-Oct-08 04:00N 53°55' E 007°46'0 0.0
2017-Oct-08 03:18N 53°55' E 007°47'0 0.1
2017-Oct-08 02:54N 53°55' E 007°46'0 0.2
2017-Oct-08 02:27N 53°55' E 007°46'0 0.2
2017-Oct-08 01:57N 53°55' E 007°46'0 0.1
2017-Oct-08 01:30N 53°55' E 007°46'0 0.0
2017-Oct-08 00:27N 53°55' E 007°46'0 0.1
2017-Oct-08 00:00N 53°55' E 007°47'0 0.0
2017-Oct-07 23:30N 53°55' E 007°47'0 0.0
2017-Oct-07 23:00N 53°55' E 007°47'0 0.0
2017-Oct-07 22:27N 53°55' E 007°47'0 0.0
2017-Oct-07 21:57N 53°55' E 007°47'0 0.0
2017-Oct-07 21:30N 53°55' E 007°47'0 0.0
2017-Oct-07 21:00N 53°55' E 007°47'0 0.0
2017-Oct-07 20:30N 53°55' E 007°47'0 0.0
2017-Oct-07 20:00N 53°55' E 007°47'0 0.1
2017-Oct-07 19:27N 53°55' E 007°47'0 0.1
2017-Oct-07 19:00N 53°55' E 007°46'0 0.1
2017-Oct-07 18:30N 53°55' E 007°47'0 0.1
2017-Oct-07 17:57N 53°55' E 007°47'0 0.0
2017-Oct-07 17:24N 53°55' E 007°47'0 0.0
2017-Oct-07 16:58N 53°55' E 007°47'0 0.1
2017-Oct-07 16:28N 53°55' E 007°47'0 0.3
2017-Oct-07 15:58N 53°55' E 007°47'0 0.2
2017-Oct-07 15:25N 53°55' E 007°47'0 0.1
2017-Oct-07 14:52N 53°55' E 007°47'0 0.0
2017-Oct-07 14:25N 53°55' E 007°47'0 0.0
2017-Oct-07 13:58N 53°55' E 007°47'0 0.2
2017-Oct-07 13:28N 53°55' E 007°47'0 0.0
2017-Oct-07 12:58N 53°55' E 007°47'0 0.1
2017-Oct-07 12:04N 53°55' E 007°46'0 0.5
2017-Oct-07 11:55N 53°55' E 007°47'0 0.0
2017-Oct-07 11:28N 53°55' E 007°47'0 0.2
2017-Oct-07 10:58N 53°55' E 007°46'0 0.0
2017-Oct-07 10:22N 53°55' E 007°46'0 0.0
2017-Oct-07 09:58N 53°55' E 007°46'0 0.1
2017-Oct-07 09:30N 53°55' E 007°46'5 9.6
2017-Oct-07 09:00N 53°55' E 007°38'7817.3
2017-Oct-07 04:29N 53°35' E 005°31'816.3
2017-Oct-07 04:00N 53°32' E 005°18'815.9
2017-Oct-07 03:30N 53°30' E 005°06'815.6
2017-Oct-07 03:00N 53°27' E 004°54'815.1
2017-Oct-07 02:30N 53°23' E 004°42'815.1
2017-Oct-07 02:00N 53°16' E 004°38'715.0
2017-Oct-07 01:31N 53°10' E 004°33'815.2
2017-Oct-07 01:00N 53°03' E 004°26'815.0
2017-Oct-07 00:30N 52°57' E 004°19'714.9
2017-Oct-07 00:00N 52°50' E 004°15'814.8
2017-Oct-06 23:27N 52°44' E 004°06'714.9
2017-Oct-06 22:59N 52°39' E 003°57'714.5
2017-Oct-06 22:29N 52°34' E 003°49'814.4
2017-Oct-06 21:55N 52°28' E 003°40'613.9
2017-Oct-06 21:30N 52°24' E 003°33'5414.1
2017-Oct-06 17:41N 51°40' E 002°42'315.4
2017-Oct-06 17:30N 51°37' E 002°44'1116.1
2017-Oct-06 16:50N 51°27' E 002°41'411.8
2017-Oct-06 16:30N 51°23' E 002°44'511.0
2017-Oct-06 16:00N 51°25' E 002°52'713.7
2017-Oct-06 15:30N 51°24' E 003°03'612.3
2017-Oct-06 15:00N 51°22' E 003°12'2 3.4
2017-Oct-06 14:30N 51°20' E 003°13'0 0.0
2017-Oct-06 14:00N 51°20' E 003°13'0 0.0
2017-Oct-06 13:30N 51°20' E 003°13'2 3.1
2017-Oct-06 13:00N 51°19' E 003°14'1 1.3
2017-Oct-06 12:28N 51°18' E 003°14'0 0.0
2017-Oct-06 11:58N 51°18' E 003°14'0 0.0
2017-Oct-06 11:28N 51°18' E 003°14'0 0.0
2017-Oct-06 10:58N 51°18' E 003°14'0 0.0
2017-Oct-06 10:28N 51°18' E 003°14'0 0.0
2017-Oct-06 09:58N 51°18' E 003°14'0 0.0
2017-Oct-06 09:28N 51°18' E 003°14'0 0.0
2017-Oct-06 08:58N 51°18' E 003°14'0 0.0
2017-Oct-06 08:28N 51°18' E 003°14'0 0.0
2017-Oct-06 07:58N 51°18' E 003°14'0 0.0
2017-Oct-06 07:28N 51°18' E 003°14'0 0.0
2017-Oct-06 06:58N 51°18' E 003°14'0 0.0
2017-Oct-06 06:28N 51°18' E 003°14'0 0.0
2017-Oct-06 05:58N 51°18' E 003°14'0 0.0
2017-Oct-06 05:28N 51°18' E 003°14'0 0.0
2017-Oct-06 04:58N 51°18' E 003°14'0 0.0
2017-Oct-06 04:25N 51°18' E 003°14'0 0.0
2017-Oct-06 03:58N 51°18' E 003°14'0 0.0
2017-Oct-06 03:28N 51°18' E 003°14'0 0.0
2017-Oct-06 02:58N 51°18' E 003°14'0 0.0
2017-Oct-06 02:28N 51°18' E 003°14'0 0.0
2017-Oct-06 01:58N 51°18' E 003°14'0 0.0
2017-Oct-06 01:28N 51°18' E 003°14'0 0.0
2017-Oct-06 00:58N 51°18' E 003°14'0 0.0
2017-Oct-06 00:28N 51°18' E 003°14'0 0.0
2017-Oct-05 23:58N 51°18' E 003°14'0 0.0
2017-Oct-05 23:28N 51°18' E 003°14'0 0.0
2017-Oct-05 22:58N 51°18' E 003°14'0 0.0
2017-Oct-05 22:28N 51°18' E 003°14'0 0.0
2017-Oct-05 21:58N 51°18' E 003°14'0 0.0
2017-Oct-05 21:28N 51°18' E 003°14'0 0.0
2017-Oct-05 20:58N 51°18' E 003°14'0 0.0
2017-Oct-05 20:28N 51°18' E 003°14'0 0.0
2017-Oct-05 19:58N 51°18' E 003°14'0 0.0
2017-Oct-05 19:28N 51°18' E 003°14'0 0.0
2017-Oct-05 18:58N 51°18' E 003°14'0 0.0
2017-Oct-05 18:28N 51°18' E 003°14'0 0.0
2017-Oct-05 17:58N 51°18' E 003°14'0 0.0
2017-Oct-05 17:28N 51°18' E 003°14'0 0.0
2017-Oct-05 16:58N 51°18' E 003°14'0 0.0
2017-Oct-05 15:28N 51°18' E 003°14'0 0.0
2017-Oct-05 14:58N 51°18' E 003°14'0 0.0
2017-Oct-05 14:28N 51°18' E 003°14'0 0.0
2017-Oct-05 13:58N 51°18' E 003°14'0 0.0
2017-Oct-05 13:28N 51°18' E 003°14'0 0.0
2017-Oct-05 12:58N 51°18' E 003°14'0 0.0
2017-Oct-05 12:28N 51°18' E 003°14'0 0.0
2017-Oct-05 11:58N 51°18' E 003°14'0 0.0
2017-Oct-05 11:28N 51°18' E 003°14'0 0.0
2017-Oct-05 10:58N 51°18' E 003°14'0 0.0
2017-Oct-05 10:28N 51°18' E 003°14'0 0.0
2017-Oct-05 09:58N 51°18' E 003°14'0 0.0
2017-Oct-05 09:28N 51°18' E 003°14'0 0.0
2017-Oct-05 08:58N 51°18' E 003°14'  

Dump ship's entire track history